sensor_id;sensor_type;location;lat;lon;timestamp;pressure;altitude;pressure_sealevel;temperature;humidity
18985;BME280;9626;52.552;13.436;2022-09-09T00:00:58;100481.94;;;15.07;100.00
18985;BME280;9626;52.552;13.436;2022-09-09T00:03:27;100477.69;;;15.03;100.00
18985;BME280;9626;52.552;13.436;2022-09-09T00:06:02;100480.34;;;15.03;100.00
18985;BME280;9626;52.552;13.436;2022-09-09T00:11:12;100480.72;;;14.94;100.00
18985;BME280;9626;52.552;13.436;2022-09-09T00:13:48;100480.59;;;14.97;100.00
18985;BME280;9626;52.552;13.436;2022-09-09T00:16:21;100484.06;;;14.99;100.00
18985;BME280;9626;52.552;13.436;2022-09-09T00:19:00;100481.53;;;14.96;100.00
18985;BME280;9626;52.552;13.436;2022-09-09T00:21:42;100472.59;;;14.97;100.00
18985;BME280;9626;52.552;13.436;2022-09-09T00:24:32;100473.53;;;14.96;100.00
18985;BME280;9626;52.552;13.436;2022-09-09T00:27:04;100466.59;;;14.92;100.00
18985;BME280;9626;52.552;13.436;2022-09-09T00:29:46;100471.13;;;14.90;100.00
18985;BME280;9626;52.552;13.436;2022-09-09T00:32:17;100471.94;;;14.92;100.00
18985;BME280;9626;52.552;13.436;2022-09-09T00:35:10;100467.59;;;14.89;100.00
18985;BME280;9626;52.552;13.436;2022-09-09T00:37:42;100472.03;;;14.88;100.00
18985;BME280;9626;52.552;13.436;2022-09-09T00:40:35;100462.25;;;14.89;100.00
18985;BME280;9626;52.552;13.436;2022-09-09T00:57:45;100464.09;;;14.87;100.00
18985;BME280;9626;52.552;13.436;2022-09-09T00:59:48;100464.03;;;14.88;100.00
18985;BME280;9626;52.552;13.436;2022-09-09T01:02:25;100471.03;;;14.91;100.00
18985;BME280;9626;52.552;13.436;2022-09-09T01:04:53;100465.16;;;14.83;100.00
18985;BME280;9626;52.552;13.436;2022-09-09T01:07:20;100463.56;;;14.79;100.00
18985;BME280;9626;52.552;13.436;2022-09-09T01:09:55;100473.34;;;14.78;100.00
18985;BME280;9626;52.552;13.436;2022-09-09T01:12:48;100465.38;;;14.78;100.00
18985;BME280;9626;52.552;13.436;2022-09-09T01:15:19;100468.09;;;14.77;100.00
18985;BME280;9626;52.552;13.436;2022-09-09T01:18:04;100473.34;;;14.78;100.00
18985;BME280;9626;52.552;13.436;2022-09-09T01:21:35;100483.19;;;14.76;100.00
18985;BME280;9626;52.552;13.436;2022-09-09T01:26:28;100466.22;;;14.79;100.00
18985;BME280;9626;52.552;13.436;2022-09-09T01:28:55;100461.88;;;14.76;100.00
18985;BME280;9626;52.552;13.436;2022-09-09T01:31:32;100464.06;;;14.66;100.00
18985;BME280;9626;52.552;13.436;2022-09-09T01:34:00;100459.72;;;14.64;100.00
18985;BME280;9626;52.552;13.436;2022-09-09T01:36:44;100459.56;;;14.67;100.00
18985;BME280;9626;52.552;13.436;2022-09-09T01:39:12;100468.59;;;14.64;100.00
18985;BME280;9626;52.552;13.436;2022-09-09T01:41:38;100474.59;;;14.69;100.00
18985;BME280;9626;52.552;13.436;2022-09-09T01:44:05;100465.88;;;14.66;100.00
18985;BME280;9626;52.552;13.436;2022-09-09T01:46:31;100462.16;;;14.70;100.00
18985;BME280;9626;52.552;13.436;2022-09-09T01:49:21;100463.81;;;14.73;100.00
18985;BME280;9626;52.552;13.436;2022-09-09T01:51:55;100467.69;;;14.64;100.00
18985;BME280;9626;52.552;13.436;2022-09-09T01:54:24;100462.66;;;14.56;100.00
18985;BME280;9626;52.552;13.436;2022-09-09T01:56:56;100460.00;;;14.56;100.00
18985;BME280;9626;52.552;13.436;2022-09-09T01:59:30;100466.31;;;14.53;100.00
18985;BME280;9626;52.552;13.436;2022-09-09T02:02:44;100467.47;;;14.46;100.00
18985;BME280;9626;52.552;13.436;2022-09-09T02:05:36;100472.84;;;14.45;100.00
18985;BME280;9626;52.552;13.436;2022-09-09T02:08:07;100464.94;;;14.43;100.00
18985;BME280;9626;52.552;13.436;2022-09-09T02:13:08;100472.84;;;14.45;100.00
18985;BME280;9626;52.552;13.436;2022-09-09T02:19:11;100477.41;;;14.43;100.00
18985;BME280;9626;52.552;13.436;2022-09-09T02:21:59;100473.00;;;14.42;100.00
18985;BME280;9626;52.552;13.436;2022-09-09T02:24:28;100482.22;;;14.33;100.00
18985;BME280;9626;52.552;13.436;2022-09-09T02:26:56;100482.25;;;14.31;100.00
18985;BME280;9626;52.552;13.436;2022-09-09T02:29:28;100480.53;;;14.30;100.00
18985;BME280;9626;52.552;13.436;2022-09-09T02:31:58;100484.06;;;14.31;100.00
18985;BME280;9626;52.552;13.436;2022-09-09T02:34:26;100481.31;;;14.32;100.00
18985;BME280;9626;52.552;13.436;2022-09-09T02:36:53;100477.69;;;14.35;100.00
18985;BME280;9626;52.552;13.436;2022-09-09T02:39:20;100473.41;;;14.31;100.00
18985;BME280;9626;52.552;13.436;2022-09-09T02:41:45;100476.25;;;14.26;100.00
18985;BME280;9626;52.552;13.436;2022-09-09T02:44:15;100473.69;;;14.23;100.00
18985;BME280;9626;52.552;13.436;2022-09-09T02:55:51;100465.69;;;14.23;100.00
18985;BME280;9626;52.552;13.436;2022-09-09T02:58:20;100474.78;;;14.17;100.00
18985;BME280;9626;52.552;13.436;2022-09-09T03:00:48;100472.84;;;14.23;100.00
18985;BME280;9626;52.552;13.436;2022-09-09T03:03:15;100468.44;;;14.22;100.00
18985;BME280;9626;52.552;13.436;2022-09-09T03:05:42;100473.94;;;14.17;100.00
18985;BME280;9626;52.552;13.436;2022-09-09T03:08:08;100475.56;;;14.21;100.00
18985;BME280;9626;52.552;13.436;2022-09-09T03:10:34;100474.00;;;14.15;100.00
18985;BME280;9626;52.552;13.436;2022-09-09T03:13:03;100479.41;;;14.12;100.00
18985;BME280;9626;52.552;13.436;2022-09-09T03:15:31;100481.16;;;14.13;100.00
18985;BME280;9626;52.552;13.436;2022-09-09T03:17:58;100482.09;;;14.12;100.00
18985;BME280;9626;52.552;13.436;2022-09-09T03:20:25;100486.56;;;14.12;100.00
18985;BME280;9626;52.552;13.436;2022-09-09T03:22:55;100485.69;;;14.11;100.00
18985;BME280;9626;52.552;13.436;2022-09-09T03:25:22;100499.88;;;14.12;100.00
18985;BME280;9626;52.552;13.436;2022-09-09T03:27:52;100493.56;;;14.14;100.00
18985;BME280;9626;52.552;13.436;2022-09-09T03:30:21;100496.22;;;14.14;100.00
18985;BME280;9626;52.552;13.436;2022-09-09T03:32:46;100494.59;;;14.10;100.00
18985;BME280;9626;52.552;13.436;2022-09-09T03:35:12;100491.03;;;14.11;100.00
18985;BME280;9626;52.552;13.436;2022-09-09T03:37:37;100497.25;;;14.10;100.00
18985;BME280;9626;52.552;13.436;2022-09-09T03:40:04;100496.44;;;14.08;100.00
18985;BME280;9626;52.552;13.436;2022-09-09T03:42:30;100493.69;;;14.11;100.00
18985;BME280;9626;52.552;13.436;2022-09-09T03:44:57;100492.00;;;14.09;100.00
18985;BME280;9626;52.552;13.436;2022-09-09T03:47:23;100491.09;;;14.08;100.00
18985;BME280;9626;52.552;13.436;2022-09-09T03:49:48;100492.06;;;14.07;100.00
18985;BME280;9626;52.552;13.436;2022-09-09T03:52:15;100484.94;;;14.08;100.00
18985;BME280;9626;52.552;13.436;2022-09-09T03:54:41;100497.38;;;14.07;100.00
18985;BME280;9626;52.552;13.436;2022-09-09T03:57:09;100500.19;;;14.02;100.00
18985;BME280;9626;52.552;13.436;2022-09-09T03:59:35;100506.56;;;13.98;100.00
18985;BME280;9626;52.552;13.436;2022-09-09T04:02:01;100497.00;;;13.93;100.00
18985;BME280;9626;52.552;13.436;2022-09-09T04:04:27;100502.22;;;13.96;100.00
18985;BME280;9626;52.552;13.436;2022-09-09T04:06:53;100498.56;;;13.98;100.00
18985;BME280;9626;52.552;13.436;2022-09-09T04:09:18;100496.94;;;13.94;100.00
18985;BME280;9626;52.552;13.436;2022-09-09T04:11:44;100488.00;;;13.97;100.00
18985;BME280;9626;52.552;13.436;2022-09-09T04:14:11;100493.56;;;13.91;100.00
18985;BME280;9626;52.552;13.436;2022-09-09T04:16:38;100488.22;;;13.91;100.00
18985;BME280;9626;52.552;13.436;2022-09-09T04:19:04;100484.88;;;13.85;100.00
18985;BME280;9626;52.552;13.436;2022-09-09T04:21:32;100492.00;;;13.83;100.00
18985;BME280;9626;52.552;13.436;2022-09-09T04:23:57;100489.34;;;13.83;100.00
18985;BME280;9626;52.552;13.436;2022-09-09T04:26:23;100496.59;;;13.80;100.00
18985;BME280;9626;52.552;13.436;2022-09-09T04:28:49;100497.47;;;13.80;100.00
18985;BME280;9626;52.552;13.436;2022-09-09T04:31:17;100499.84;;;13.88;100.00
18985;BME280;9626;52.552;13.436;2022-09-09T04:33:44;100498.97;;;13.88;100.00
18985;BME280;9626;52.552;13.436;2022-09-09T04:36:10;100499.94;;;13.85;100.00
18985;BME280;9626;52.552;13.436;2022-09-09T04:38:35;100499.94;;;13.85;100.00
18985;BME280;9626;52.552;13.436;2022-09-09T04:41:01;100510.72;;;13.82;100.00
18985;BME280;9626;52.552;13.436;2022-09-09T04:43:27;100500.19;;;13.79;100.00
18985;BME280;9626;52.552;13.436;2022-09-09T04:45:52;100510.81;;;13.79;100.00
18985;BME280;9626;52.552;13.436;2022-09-09T04:48:19;100515.97;;;13.83;100.00
18985;BME280;9626;52.552;13.436;2022-09-09T04:50:56;100512.41;;;13.84;100.00
18985;BME280;9626;52.552;13.436;2022-09-09T04:53:23;100512.66;;;13.77;100.00
18985;BME280;9626;52.552;13.436;2022-09-09T04:55:48;100517.00;;;13.79;100.00
18985;BME280;9626;52.552;13.436;2022-09-09T04:58:14;100511.69;;;13.79;100.00
18985;BME280;9626;52.552;13.436;2022-09-09T05:00:40;100518.88;;;13.77;100.00
18985;BME280;9626;52.552;13.436;2022-09-09T05:03:07;100531.03;;;13.84;100.00
18985;BME280;9626;52.552;13.436;2022-09-09T05:05:34;100537.06;;;13.90;100.00
18985;BME280;9626;52.552;13.436;2022-09-09T05:08:04;100530.81;;;13.91;100.00
18985;BME280;9626;52.552;13.436;2022-09-09T05:10:30;100535.31;;;13.89;100.00
18985;BME280;9626;52.552;13.436;2022-09-09T05:12:56;100525.50;;;13.91;100.00
18985;BME280;9626;52.552;13.436;2022-09-09T05:15:22;100523.63;;;13.93;100.00
18985;BME280;9626;52.552;13.436;2022-09-09T05:18:05;100523.63;;;13.93;100.00
18985;BME280;9626;52.552;13.436;2022-09-09T05:20:50;100531.56;;;13.94;100.00
18985;BME280;9626;52.552;13.436;2022-09-09T05:23:16;100531.50;;;13.96;100.00
18985;BME280;9626;52.552;13.436;2022-09-09T05:25:42;100525.31;;;13.95;100.00
18985;BME280;9626;52.552;13.436;2022-09-09T05:28:07;100524.22;;;14.01;100.00
18985;BME280;9626;52.552;13.436;2022-09-09T05:30:33;100516.16;;;14.02;100.00
18985;BME280;9626;52.552;13.436;2022-09-09T05:32:59;100523.13;;;14.07;100.00
18985;BME280;9626;52.552;13.436;2022-09-09T05:35:25;100528.28;;;14.11;100.00
18985;BME280;9626;52.552;13.436;2022-09-09T05:37:51;100526.31;;;14.16;100.00
18985;BME280;9626;52.552;13.436;2022-09-09T05:40:16;100519.34;;;14.12;100.00
18985;BME280;9626;52.552;13.436;2022-09-09T05:42:42;100525.56;;;14.13;100.00
18985;BME280;9626;52.552;13.436;2022-09-09T05:45:08;100519.09;;;14.20;100.00
18985;BME280;9626;52.552;13.436;2022-09-09T05:47:34;100517.06;;;14.27;100.00
18985;BME280;9626;52.552;13.436;2022-09-09T05:50:01;100514.22;;;14.31;100.00
18985;BME280;9626;52.552;13.436;2022-09-09T05:52:26;100519.50;;;14.33;100.00
18985;BME280;9626;52.552;13.436;2022-09-09T05:54:52;100524.66;;;14.37;100.00
18985;BME280;9626;52.552;13.436;2022-09-09T05:57:19;100516.53;;;14.41;100.00
18985;BME280;9626;52.552;13.436;2022-09-09T05:59:45;100519.81;;;14.47;100.00
18985;BME280;9626;52.552;13.436;2022-09-09T06:02:11;100517.00;;;14.52;100.00
18985;BME280;9626;52.552;13.436;2022-09-09T06:04:37;100525.59;;;14.59;100.00
18985;BME280;9626;52.552;13.436;2022-09-09T06:07:04;100528.94;;;14.65;100.00
18985;BME280;9626;52.552;13.436;2022-09-09T06:09:30;100520.78;;;14.70;100.00
18985;BME280;9626;52.552;13.436;2022-09-09T06:11:56;100533.91;;;14.75;100.00
18985;BME280;9626;52.552;13.436;2022-09-09T06:14:23;100535.34;;;14.83;100.00
18985;BME280;9626;52.552;13.436;2022-09-09T06:16:50;100543.28;;;14.85;100.00
18985;BME280;9626;52.552;13.436;2022-09-09T06:19:16;100536.91;;;14.89;100.00
18985;BME280;9626;52.552;13.436;2022-09-09T06:21:42;100541.25;;;14.92;100.00
18985;BME280;9626;52.552;13.436;2022-09-09T06:24:26;100546.31;;;14.98;100.00
18985;BME280;9626;52.552;13.436;2022-09-09T06:26:51;100541.53;;;15.06;100.00
18985;BME280;9626;52.552;13.436;2022-09-09T06:29:17;100539.69;;;15.08;100.00
18985;BME280;9626;52.552;13.436;2022-09-09T06:31:44;100536.69;;;15.16;100.00
18985;BME280;9626;52.552;13.436;2022-09-09T06:34:10;100538.38;;;15.18;100.00
18985;BME280;9626;52.552;13.436;2022-09-09T06:36:37;100533.56;;;15.27;100.00
18985;BME280;9626;52.552;13.436;2022-09-09T06:39:04;100536.00;;;15.33;100.00
18985;BME280;9626;52.552;13.436;2022-09-09T06:41:31;100539.34;;;15.38;100.00
18985;BME280;9626;52.552;13.436;2022-09-09T06:43:58;100550.66;;;15.43;100.00
18985;BME280;9626;52.552;13.436;2022-09-09T06:46:26;100551.72;;;15.39;100.00
18985;BME280;9626;52.552;13.436;2022-09-09T06:48:56;100549.19;;;15.36;100.00
18985;BME280;9626;52.552;13.436;2022-09-09T06:51:23;100544.94;;;15.32;100.00
18985;BME280;9626;52.552;13.436;2022-09-09T06:53:52;100555.59;;;15.32;100.00
18985;BME280;9626;52.552;13.436;2022-09-09T06:56:24;100549.19;;;15.36;100.00
18985;BME280;9626;52.552;13.436;2022-09-09T06:58:53;100547.22;;;15.41;100.00
18985;BME280;9626;52.552;13.436;2022-09-09T07:01:25;100553.63;;;15.58;100.00
18985;BME280;9626;52.552;13.436;2022-09-09T07:03:53;100539.63;;;15.73;100.00
18985;BME280;9626;52.552;13.436;2022-09-09T07:06:24;100543.66;;;15.83;100.00
18985;BME280;9626;52.552;13.436;2022-09-09T07:08:55;100540.72;;;15.89;100.00
18985;BME280;9626;52.552;13.436;2022-09-09T07:11:23;100546.72;;;15.95;100.00
18985;BME280;9626;52.552;13.436;2022-09-09T07:13:49;100545.50;;;16.02;100.00
18985;BME280;9626;52.552;13.436;2022-09-09T07:16:17;100550.59;;;16.08;100.00
18985;BME280;9626;52.552;13.436;2022-09-09T07:18:43;100544.84;;;16.17;100.00
18985;BME280;9626;52.552;13.436;2022-09-09T07:21:11;100544.44;;;16.27;100.00
18985;BME280;9626;52.552;13.436;2022-09-09T07:23:38;100547.47;;;16.38;100.00
18985;BME280;9626;52.552;13.436;2022-09-09T07:26:12;100550.06;;;16.39;100.00
18985;BME280;9626;52.552;13.436;2022-09-09T07:28:40;100548.63;;;16.51;100.00
18985;BME280;9626;52.552;13.436;2022-09-09T07:31:08;100539.47;;;16.57;100.00
18985;BME280;9626;52.552;13.436;2022-09-09T07:33:38;100545.06;;;16.70;100.00
18985;BME280;9626;52.552;13.436;2022-09-09T07:36:07;100555.25;;;16.81;100.00
18985;BME280;9626;52.552;13.436;2022-09-09T07:38:44;100545.75;;;16.94;100.00
18985;BME280;9626;52.552;13.436;2022-09-09T07:41:17;100540.75;;;17.23;100.00
18985;BME280;9626;52.552;13.436;2022-09-09T07:43:45;100549.84;;;17.38;100.00
18985;BME280;9626;52.552;13.436;2022-09-09T07:46:12;100543.66;;;17.55;100.00
18985;BME280;9626;52.552;13.436;2022-09-09T07:48:39;100547.09;;;17.74;100.00
18985;BME280;9626;52.552;13.436;2022-09-09T07:51:11;100548.59;;;17.98;100.00
18985;BME280;9626;52.552;13.436;2022-09-09T07:53:38;100548.22;;;18.21;100.00
18985;BME280;9626;52.552;13.436;2022-09-09T07:56:06;100548.34;;;18.36;100.00
18985;BME280;9626;52.552;13.436;2022-09-09T07:58:32;100547.19;;;18.57;100.00
18985;BME280;9626;52.552;13.436;2022-09-09T08:00:58;100551.53;;;18.92;100.00
18985;BME280;9626;52.552;13.436;2022-09-09T08:03:24;100557.22;;;19.18;100.00
18985;BME280;9626;52.552;13.436;2022-09-09T08:05:50;100548.63;;;19.43;100.00
18985;BME280;9626;52.552;13.436;2022-09-09T08:08:15;100553.06;;;19.58;100.00
18985;BME280;9626;52.552;13.436;2022-09-09T08:10:42;100549.47;;;19.74;100.00
18985;BME280;9626;52.552;13.436;2022-09-09T08:13:08;100554.50;;;19.80;100.00
18985;BME280;9626;52.552;13.436;2022-09-09T08:15:34;100557.78;;;19.85;100.00
18985;BME280;9626;52.552;13.436;2022-09-09T08:17:59;100561.44;;;19.84;100.00
18985;BME280;9626;52.552;13.436;2022-09-09T08:20:25;100554.34;;;19.67;100.00
18985;BME280;9626;52.552;13.436;2022-09-09T08:22:50;100556.13;;;19.52;100.00
18985;BME280;9626;52.552;13.436;2022-09-09T08:25:16;100561.16;;;19.42;100.00
18985;BME280;9626;52.552;13.436;2022-09-09T08:27:41;100562.41;;;19.37;100.00
18985;BME280;9626;52.552;13.436;2022-09-09T08:30:07;100557.66;;;19.10;100.00
18985;BME280;9626;52.552;13.436;2022-09-09T08:32:33;100561.56;;;19.20;100.00
18985;BME280;9626;52.552;13.436;2022-09-09T08:35:00;100565.13;;;19.05;100.00
18985;BME280;9626;52.552;13.436;2022-09-09T08:37:26;100558.03;;;19.04;100.00
18985;BME280;9626;52.552;13.436;2022-09-09T08:39:51;100562.97;;;18.96;100.00
18985;BME280;9626;52.552;13.436;2022-09-09T08:42:30;100557.56;;;18.80;100.00
18985;BME280;9626;52.552;13.436;2022-09-09T08:45:19;100566.38;;;18.66;100.00
18985;BME280;9626;52.552;13.436;2022-09-09T08:48:36;100567.56;;;18.44;100.00
18985;BME280;9626;52.552;13.436;2022-09-09T08:51:07;100566.19;;;18.37;100.00
18985;BME280;9626;52.552;13.436;2022-09-09T08:53:41;100568.94;;;18.35;100.00
18985;BME280;9626;52.552;13.436;2022-09-09T08:56:21;100575.56;;;18.28;100.00
18985;BME280;9626;52.552;13.436;2022-09-09T08:58:51;100571.84;;;18.31;100.00
18985;BME280;9626;52.552;13.436;2022-09-09T09:07:05;100574.53;;;18.31;100.00
18985;BME280;9626;52.552;13.436;2022-09-09T09:12:19;100571.25;;;18.26;100.00
18985;BME280;9626;52.552;13.436;2022-09-09T09:14:47;100564.63;;;18.33;100.00
18985;BME280;9626;52.552;13.436;2022-09-09T09:17:20;100574.66;;;18.45;100.00
18985;BME280;9626;52.552;13.436;2022-09-09T09:19:49;100560.75;;;18.70;100.00
18985;BME280;9626;52.552;13.436;2022-09-09T09:22:19;100574.88;;;18.74;100.00
18985;BME280;9626;52.552;13.436;2022-09-09T09:24:55;100582.19;;;18.88;100.00
18985;BME280;9626;52.552;13.436;2022-09-09T09:27:28;100566.69;;;19.09;100.00
18985;BME280;9626;52.552;13.436;2022-09-09T09:29:56;100568.34;;;19.12;100.00
18985;BME280;9626;52.552;13.436;2022-09-09T09:32:24;100570.94;;;19.13;100.00
18985;BME280;9626;52.552;13.436;2022-09-09T09:34:55;100564.06;;;19.23;100.00
18985;BME280;9626;52.552;13.436;2022-09-09T09:37:29;100567.94;;;19.34;100.00
18985;BME280;9626;52.552;13.436;2022-09-09T09:39:55;100567.75;;;19.37;100.00
18985;BME280;9626;52.552;13.436;2022-09-09T09:42:22;100560.13;;;19.45;100.00
18985;BME280;9626;52.552;13.436;2022-09-09T09:44:49;100563.41;;;19.50;100.00
18985;BME280;9626;52.552;13.436;2022-09-09T09:47:17;100573.97;;;19.53;100.00
18985;BME280;9626;52.552;13.436;2022-09-09T09:49:54;100571.38;;;19.52;100.00
18985;BME280;9626;52.552;13.436;2022-09-09T09:52:28;100570.03;;;19.59;100.00
18985;BME280;9626;52.552;13.436;2022-09-09T09:54:56;100562.88;;;19.74;100.00
18985;BME280;9626;52.552;13.436;2022-09-09T09:57:27;100578.50;;;19.67;100.00
18985;BME280;9626;52.552;13.436;2022-09-09T10:00:13;100578.44;;;19.69;100.00
18985;BME280;9626;52.552;13.436;2022-09-09T10:02:41;100567.50;;;19.72;100.00
18985;BME280;9626;52.552;13.436;2022-09-09T10:05:17;100574.00;;;19.84;100.00
18985;BME280;9626;52.552;13.436;2022-09-09T10:07:44;100569.69;;;19.81;100.00
18985;BME280;9626;52.552;13.436;2022-09-09T10:10:30;100568.66;;;19.68;100.00
18985;BME280;9626;52.552;13.436;2022-09-09T10:16:08;100570.44;;;19.83;100.00
18985;BME280;9626;52.552;13.436;2022-09-09T10:19:00;100571.63;;;19.93;100.00
18985;BME280;9626;52.552;13.436;2022-09-09T10:22:21;100576.59;;;20.00;100.00
18985;BME280;9626;52.552;13.436;2022-09-09T10:30:17;100574.16;;;20.11;100.00
18985;BME280;9626;52.552;13.436;2022-09-09T10:33:07;100577.38;;;20.16;100.00
18985;BME280;9626;52.552;13.436;2022-09-09T10:35:42;100571.94;;;20.32;100.00
18985;BME280;9626;52.552;13.436;2022-09-09T10:38:26;100572.63;;;20.36;100.00
18985;BME280;9626;52.552;13.436;2022-09-09T10:46:31;100582.59;;;20.34;100.00
18985;BME280;9626;52.552;13.436;2022-09-09T10:56:55;100576.75;;;20.41;100.00
18985;BME280;9626;52.552;13.436;2022-09-09T10:59:27;100573.56;;;20.35;100.00
18985;BME280;9626;52.552;13.436;2022-09-09T11:02:12;100577.28;;;20.61;100.00
18985;BME280;9626;52.552;13.436;2022-09-09T11:04:48;100574.53;;;20.91;100.00
18985;BME280;9626;52.552;13.436;2022-09-09T11:07:25;100583.13;;;20.97;100.00
18985;BME280;9626;52.552;13.436;2022-09-09T11:10:23;100568.34;;;21.04;99.82
18985;BME280;9626;52.552;13.436;2022-09-09T11:13:20;100579.34;;;21.14;97.92
18985;BME280;9626;52.552;13.436;2022-09-09T11:15:56;100567.88;;;20.97;97.32
18985;BME280;9626;52.552;13.436;2022-09-09T11:18:31;100572.44;;;21.09;96.58
18985;BME280;9626;52.552;13.436;2022-09-09T11:21:06;100578.09;;;21.05;96.95
18985;BME280;9626;52.552;13.436;2022-09-09T11:23:50;100574.81;;;21.14;96.56
18985;BME280;9626;52.552;13.436;2022-09-09T11:26:41;100572.91;;;21.16;94.82
18985;BME280;9626;52.552;13.436;2022-09-09T11:29:32;100575.50;;;21.18;94.89
18985;BME280;9626;52.552;13.436;2022-09-09T11:41:05;100576.72;;;21.54;85.01
18985;BME280;9626;52.552;13.436;2022-09-09T11:43:52;100578.44;;;21.55;86.68
18985;BME280;9626;52.552;13.436;2022-09-09T11:46:22;100573.06;;;21.68;85.07
18985;BME280;9626;52.552;13.436;2022-09-09T11:49:00;100565.44;;;21.61;89.01
18985;BME280;9626;52.552;13.436;2022-09-09T11:51:28;100569.19;;;21.72;87.25
18985;BME280;9626;52.552;13.436;2022-09-09T11:54:00;100564.47;;;21.63;88.04
18985;BME280;9626;52.552;13.436;2022-09-09T11:56:48;100562.28;;;21.55;88.52
18985;BME280;9626;52.552;13.436;2022-09-09T11:59:19;100562.09;;;21.71;91.26
18985;BME280;9626;52.552;13.436;2022-09-09T12:02:19;100557.59;;;21.84;84.07
18985;BME280;9626;52.552;13.436;2022-09-09T12:04:59;100555.88;;;21.83;87.12
18985;BME280;9626;52.552;13.436;2022-09-09T12:09:56;100555.72;;;21.59;77.91
18985;BME280;9626;52.552;13.436;2022-09-09T12:12:31;100533.66;;;21.67;80.25
18985;BME280;9626;52.552;13.436;2022-09-09T12:15:16;100540.00;;;21.66;83.96
18985;BME280;9626;52.552;13.436;2022-09-09T12:17:45;100529.66;;;21.85;79.36
18985;BME280;9626;52.552;13.436;2022-09-09T12:28:23;100525.25;;;22.10;75.24
18985;BME280;9626;52.552;13.436;2022-09-09T12:36:39;100526.97;;;21.85;74.26
18985;BME280;9626;52.552;13.436;2022-09-09T12:39:18;100525.34;;;21.70;74.16
18985;BME280;9626;52.552;13.436;2022-09-09T12:42:00;100515.88;;;21.64;71.46
18985;BME280;9626;52.552;13.436;2022-09-09T12:44:26;100520.81;;;21.57;72.72
18985;BME280;9626;52.552;13.436;2022-09-09T12:46:58;100517.91;;;21.60;75.63
18985;BME280;9626;52.552;13.436;2022-09-09T12:49:32;100525.25;;;21.58;74.65
18985;BME280;9626;52.552;13.436;2022-09-09T12:52:23;100521.03;;;21.54;77.96
18985;BME280;9626;52.552;13.436;2022-09-09T12:54:52;100518.22;;;21.56;78.83
18985;BME280;9626;52.552;13.436;2022-09-09T12:57:39;100512.50;;;21.60;76.56
18985;BME280;9626;52.552;13.436;2022-09-09T13:00:31;100515.44;;;21.57;72.67
18985;BME280;9626;52.552;13.436;2022-09-09T13:03:20;100515.97;;;21.63;73.78
18985;BME280;9626;52.552;13.436;2022-09-09T13:05:59;100515.97;;;21.63;75.93
18985;BME280;9626;52.552;13.436;2022-09-09T13:08:35;100521.56;;;21.59;78.05
18985;BME280;9626;52.552;13.436;2022-09-09T13:11:04;100521.09;;;21.53;79.07
18985;BME280;9626;52.552;13.436;2022-09-09T13:13:40;100532.75;;;21.53;75.88
18985;BME280;9626;52.552;13.436;2022-09-09T13:16:21;100530.34;;;21.49;75.68
18985;BME280;9626;52.552;13.436;2022-09-09T13:19:16;100528.41;;;21.38;74.36
18985;BME280;9626;52.552;13.436;2022-09-09T13:21:42;100523.09;;;21.36;75.76
18985;BME280;9626;52.552;13.436;2022-09-09T13:24:32;100525.69;;;21.38;75.93
18985;BME280;9626;52.552;13.436;2022-09-09T13:27:04;100523.53;;;21.43;75.73
18985;BME280;9626;52.552;13.436;2022-09-09T13:29:31;100511.56;;;21.34;75.54
18985;BME280;9626;52.552;13.436;2022-09-09T13:32:05;100511.56;;;21.34;76.26
18985;BME280;9626;52.552;13.436;2022-09-09T13:34:35;100508.09;;;21.32;75.76
18985;BME280;9626;52.552;13.436;2022-09-09T13:37:02;100506.41;;;21.31;75.13
18985;BME280;9626;52.552;13.436;2022-09-09T13:39:29;100499.28;;;21.30;74.86
18985;BME280;9626;52.552;13.436;2022-09-09T13:41:54;100493.03;;;21.30;74.50
18985;BME280;9626;52.552;13.436;2022-09-09T13:44:24;100498.22;;;21.33;76.04
18985;BME280;9626;52.552;13.436;2022-09-09T13:47:05;100498.34;;;21.44;72.96
18985;BME280;9626;52.552;13.436;2022-09-09T13:49:31;100501.97;;;21.57;73.24
18985;BME280;9626;52.552;13.436;2022-09-09T13:52:10;100487.53;;;21.84;71.39
18985;BME280;9626;52.552;13.436;2022-09-09T13:54:36;100494.84;;;22.08;69.85
18985;BME280;9626;52.552;13.436;2022-09-09T13:57:02;100497.66;;;22.06;69.73
18985;BME280;9626;52.552;13.436;2022-09-09T13:59:29;100501.84;;;21.98;70.06
18985;BME280;9626;52.552;13.436;2022-09-09T14:01:55;100496.25;;;21.88;69.82
18985;BME280;9626;52.552;13.436;2022-09-09T14:04:21;100491.44;;;21.80;68.06
18985;BME280;9626;52.552;13.436;2022-09-09T14:06:47;100500.88;;;21.73;69.45
18985;BME280;9626;52.552;13.436;2022-09-09T14:09:15;100502.41;;;21.64;70.34
18985;BME280;9626;52.552;13.436;2022-09-09T14:11:42;100508.84;;;21.61;70.94
18985;BME280;9626;52.552;13.436;2022-09-09T14:14:08;100512.00;;;21.68;72.03
18985;BME280;9626;52.552;13.436;2022-09-09T14:16:34;100502.84;;;21.71;69.07
18985;BME280;9626;52.552;13.436;2022-09-09T14:19:18;100505.66;;;21.69;69.97
18985;BME280;9626;52.552;13.436;2022-09-09T14:22:02;100494.88;;;21.69;67.90
18985;BME280;9626;52.552;13.436;2022-09-09T14:24:28;100500.16;;;21.71;67.97
18985;BME280;9626;52.552;13.436;2022-09-09T14:26:54;100497.22;;;21.87;69.16
18985;BME280;9626;52.552;13.436;2022-09-09T14:29:20;100493.75;;;21.98;69.02
18985;BME280;9626;52.552;13.436;2022-09-09T14:31:45;100488.81;;;21.91;69.19
18985;BME280;9626;52.552;13.436;2022-09-09T14:34:11;100494.84;;;21.82;71.13
18985;BME280;9626;52.552;13.436;2022-09-09T14:36:37;100497.34;;;21.72;71.46